sensor_id;sensor_type;location;lat;lon;timestamp;temperature;humidity
38456;DHT22;24237;50.106;20.014;2022-11-15T00:00:47;8.10;99.90
38456;DHT22;24237;50.106;20.014;2022-11-15T00:03:14;8.30;99.90
38456;DHT22;24237;50.106;20.014;2022-11-15T00:05:41;8.20;99.90
38456;DHT22;24237;50.106;20.014;2022-11-15T00:08:06;8.10;99.90
38456;DHT22;24237;50.106;20.014;2022-11-15T00:10:32;8.10;99.90
38456;DHT22;24237;50.106;20.014;2022-11-15T00:12:57;8.00;99.90
38456;DHT22;24237;50.106;20.014;2022-11-15T00:15:23;8.30;99.90
38456;DHT22;24237;50.106;20.014;2022-11-15T00:17:49;8.20;99.90
38456;DHT22;24237;50.106;20.014;2022-11-15T00:20:17;8.10;99.90
38456;DHT22;24237;50.106;20.014;2022-11-15T00:22:43;8.10;99.90
38456;DHT22;24237;50.106;20.014;2022-11-15T00:25:12;8.10;99.90
38456;DHT22;24237;50.106;20.014;2022-11-15T00:27:37;8.30;99.90
38456;DHT22;24237;50.106;20.014;2022-11-15T00:30:03;8.20;99.90
38456;DHT22;24237;50.106;20.014;2022-11-15T00:32:32;8.20;99.90
38456;DHT22;24237;50.106;20.014;2022-11-15T00:34:58;8.30;99.90
38456;DHT22;24237;50.106;20.014;2022-11-15T00:37:23;8.30;99.90
38456;DHT22;24237;50.106;20.014;2022-11-15T00:39:49;8.30;99.90
38456;DHT22;24237;50.106;20.014;2022-11-15T00:42:15;8.30;99.90
38456;DHT22;24237;50.106;20.014;2022-11-15T00:44:40;8.30;99.90
38456;DHT22;24237;50.106;20.014;2022-11-15T00:47:06;8.40;99.90
38456;DHT22;24237;50.106;20.014;2022-11-15T00:49:31;8.30;99.90
38456;DHT22;24237;50.106;20.014;2022-11-15T00:51:57;8.40;99.90
38456;DHT22;24237;50.106;20.014;2022-11-15T00:54:23;8.20;99.90
38456;DHT22;24237;50.106;20.014;2022-11-15T00:56:48;8.00;99.90
38456;DHT22;24237;50.106;20.014;2022-11-15T00:59:14;8.10;99.90
38456;DHT22;24237;50.106;20.014;2022-11-15T01:01:40;7.90;99.90
38456;DHT22;24237;50.106;20.014;2022-11-15T01:04:05;7.90;99.90
38456;DHT22;24237;50.106;20.014;2022-11-15T01:06:31;7.80;99.90
38456;DHT22;24237;50.106;20.014;2022-11-15T01:08:57;7.80;99.90
38456;DHT22;24237;50.106;20.014;2022-11-15T01:11:22;7.90;99.90
38456;DHT22;24237;50.106;20.014;2022-11-15T01:13:48;7.90;99.90
38456;DHT22;24237;50.106;20.014;2022-11-15T01:16:16;7.90;99.90
38456;DHT22;24237;50.106;20.014;2022-11-15T01:18:44;7.70;99.90
38456;DHT22;24237;50.106;20.014;2022-11-15T01:21:15;7.70;99.90
38456;DHT22;24237;50.106;20.014;2022-11-15T01:23:42;7.70;99.90
38456;DHT22;24237;50.106;20.014;2022-11-15T01:26:13;8.00;99.90
38456;DHT22;24237;50.106;20.014;2022-11-15T01:28:41;8.10;99.90
38456;DHT22;24237;50.106;20.014;2022-11-15T01:31:13;8.30;99.90
38456;DHT22;24237;50.106;20.014;2022-11-15T01:33:39;8.20;99.90
38456;DHT22;24237;50.106;20.014;2022-11-15T01:36:12;8.20;99.90
38456;DHT22;24237;50.106;20.014;2022-11-15T01:38:38;8.00;99.90
38456;DHT22;24237;50.106;20.014;2022-11-15T01:41:04;8.00;99.90
38456;DHT22;24237;50.106;20.014;2022-11-15T01:43:33;8.20;99.90
38456;DHT22;24237;50.106;20.014;2022-11-15T01:48:51;8.10;99.90
38456;DHT22;24237;50.106;20.014;2022-11-15T01:51:18;8.20;99.90
38456;DHT22;24237;50.106;20.014;2022-11-15T01:53:48;8.10;99.90
38456;DHT22;24237;50.106;20.014;2022-11-15T01:56:18;8.00;99.90
38456;DHT22;24237;50.106;20.014;2022-11-15T01:58:45;8.00;99.90
38456;DHT22;24237;50.106;20.014;2022-11-15T02:01:12;8.10;99.90
38456;DHT22;24237;50.106;20.014;2022-11-15T02:04:03;8.00;99.90
38456;DHT22;24237;50.106;20.014;2022-11-15T02:06:35;8.20;99.90
38456;DHT22;24237;50.106;20.014;2022-11-15T02:09:01;7.90;99.90
38456;DHT22;24237;50.106;20.014;2022-11-15T02:11:28;8.10;99.90
38456;DHT22;24237;50.106;20.014;2022-11-15T02:13:54;8.50;99.90
38456;DHT22;24237;50.106;20.014;2022-11-15T02:32:53;7.90;99.90
38456;DHT22;24237;50.106;20.014;2022-11-15T02:35:43;8.10;99.90
38456;DHT22;24237;50.106;20.014;2022-11-15T02:41:04;7.90;99.90
38456;DHT22;24237;50.106;20.014;2022-11-15T02:43:39;8.00;99.90
38456;DHT22;24237;50.106;20.014;2022-11-15T02:46:32;8.00;99.90
38456;DHT22;24237;50.106;20.014;2022-11-15T02:49:17;8.00;99.90
38456;DHT22;24237;50.106;20.014;2022-11-15T02:51:50;8.00;99.90
38456;DHT22;24237;50.106;20.014;2022-11-15T02:54:21;7.90;99.90
38456;DHT22;24237;50.106;20.014;2022-11-15T02:56:49;8.10;99.90
38456;DHT22;24237;50.106;20.014;2022-11-15T03:04:52;8.00;99.90
38456;DHT22;24237;50.106;20.014;2022-11-15T03:07:26;8.10;99.90
38456;DHT22;24237;50.106;20.014;2022-11-15T03:10:12;8.00;99.90
38456;DHT22;24237;50.106;20.014;2022-11-15T03:12:57;8.00;99.90
38456;DHT22;24237;50.106;20.014;2022-11-15T03:15:31;8.00;99.90
38456;DHT22;24237;50.106;20.014;2022-11-15T03:18:02;8.20;99.90
38456;DHT22;24237;50.106;20.014;2022-11-15T03:20:30;8.10;99.90
38456;DHT22;24237;50.106;20.014;2022-11-15T03:23:01;8.30;99.90
38456;DHT22;24237;50.106;20.014;2022-11-15T03:25:28;8.30;99.90
38456;DHT22;24237;50.106;20.014;2022-11-15T03:27:58;8.00;99.90
38456;DHT22;24237;50.106;20.014;2022-11-15T03:30:26;7.90;99.90
38456;DHT22;24237;50.106;20.014;2022-11-15T03:32:56;7.90;99.90
38456;DHT22;24237;50.106;20.014;2022-11-15T03:35:25;7.90;99.90
38456;DHT22;24237;50.106;20.014;2022-11-15T03:38:08;7.80;99.90
38456;DHT22;24237;50.106;20.014;2022-11-15T03:40:50;7.80;99.90
38456;DHT22;24237;50.106;20.014;2022-11-15T03:46:41;7.90;99.90
38456;DHT22;24237;50.106;20.014;2022-11-15T03:49:15;7.80;99.90
38456;DHT22;24237;50.106;20.014;2022-11-15T03:51:42;8.10;99.90
38456;DHT22;24237;50.106;20.014;2022-11-15T03:54:08;7.90;99.90
38456;DHT22;24237;50.106;20.014;2022-11-15T03:56:34;7.70;99.90
38456;DHT22;24237;50.106;20.014;2022-11-15T03:58:59;7.70;99.90
38456;DHT22;24237;50.106;20.014;2022-11-15T04:01:25;7.80;99.90
38456;DHT22;24237;50.106;20.014;2022-11-15T04:03:50;8.10;99.90
38456;DHT22;24237;50.106;20.014;2022-11-15T04:06:19;8.20;99.90
38456;DHT22;24237;50.106;20.014;2022-11-15T04:08:44;7.80;99.90
38456;DHT22;24237;50.106;20.014;2022-11-15T04:11:10;8.10;99.90
38456;DHT22;24237;50.106;20.014;2022-11-15T04:13:35;8.10;99.90
38456;DHT22;24237;50.106;20.014;2022-11-15T04:16:01;7.90;99.90
38456;DHT22;24237;50.106;20.014;2022-11-15T04:18:26;7.80;99.90
38456;DHT22;24237;50.106;20.014;2022-11-15T04:20:52;7.90;99.90
38456;DHT22;24237;50.106;20.014;2022-11-15T04:23:36;7.80;99.90
38456;DHT22;24237;50.106;20.014;2022-11-15T04:26:24;7.60;99.90
38456;DHT22;24237;50.106;20.014;2022-11-15T04:28:53;7.50;99.90
38456;DHT22;24237;50.106;20.014;2022-11-15T04:31:37;7.80;99.90
38456;DHT22;24237;50.106;20.014;2022-11-15T04:34:03;7.60;99.90
38456;DHT22;24237;50.106;20.014;2022-11-15T04:36:28;7.60;99.90
38456;DHT22;24237;50.106;20.014;2022-11-15T04:39:12;7.60;99.90
38456;DHT22;24237;50.106;20.014;2022-11-15T04:41:38;7.50;99.90
38456;DHT22;24237;50.106;20.014;2022-11-15T04:44:03;7.60;99.90
38456;DHT22;24237;50.106;20.014;2022-11-15T04:46:29;7.70;99.90
38456;DHT22;24237;50.106;20.014;2022-11-15T04:48:55;7.60;99.90
38456;DHT22;24237;50.106;20.014;2022-11-15T04:51:21;7.60;99.90
38456;DHT22;24237;50.106;20.014;2022-11-15T04:53:46;7.60;99.90
38456;DHT22;24237;50.106;20.014;2022-11-15T04:56:12;7.50;99.90
38456;DHT22;24237;50.106;20.014;2022-11-15T04:58:37;7.70;99.90
38456;DHT22;24237;50.106;20.014;2022-11-15T05:01:16;7.70;99.90
38456;DHT22;24237;50.106;20.014;2022-11-15T05:03:43;7.90;99.90
38456;DHT22;24237;50.106;20.014;2022-11-15T05:06:27;7.70;99.90
38456;DHT22;24237;50.106;20.014;2022-11-15T05:08:53;7.70;99.90
38456;DHT22;24237;50.106;20.014;2022-11-15T05:11:18;7.70;99.90
38456;DHT22;24237;50.106;20.014;2022-11-15T05:13:45;7.60;99.90
38456;DHT22;24237;50.106;20.014;2022-11-15T05:16:11;7.50;99.90
38456;DHT22;24237;50.106;20.014;2022-11-15T05:18:37;7.60;99.90
38456;DHT22;24237;50.106;20.014;2022-11-15T05:21:12;7.70;99.90
38456;DHT22;24237;50.106;20.014;2022-11-15T05:23:38;7.60;99.90
38456;DHT22;24237;50.106;20.014;2022-11-15T05:26:05;7.50;99.90
38456;DHT22;24237;50.106;20.014;2022-11-15T05:28:34;7.60;99.90
38456;DHT22;24237;50.106;20.014;2022-11-15T05:31:05;7.30;99.90
38456;DHT22;24237;50.106;20.014;2022-11-15T05:33:32;7.40;99.90
38456;DHT22;24237;50.106;20.014;2022-11-15T05:36:04;7.40;99.90
38456;DHT22;24237;50.106;20.014;2022-11-15T05:38:32;7.30;99.90
38456;DHT22;24237;50.106;20.014;2022-11-15T05:40:59;7.60;99.90
38456;DHT22;24237;50.106;20.014;2022-11-15T05:43:26;7.60;99.90
38456;DHT22;24237;50.106;20.014;2022-11-15T05:45:52;7.20;99.90
38456;DHT22;24237;50.106;20.014;2022-11-15T05:48:17;7.10;99.90
38456;DHT22;24237;50.106;20.014;2022-11-15T05:50:45;7.00;99.90
38456;DHT22;24237;50.106;20.014;2022-11-15T05:53:14;7.10;99.90
38456;DHT22;24237;50.106;20.014;2022-11-15T05:55:41;7.20;99.90
38456;DHT22;24237;50.106;20.014;2022-11-15T05:58:07;7.30;99.90
38456;DHT22;24237;50.106;20.014;2022-11-15T06:00:33;7.20;99.90
38456;DHT22;24237;50.106;20.014;2022-11-15T06:02:58;7.10;99.90
38456;DHT22;24237;50.106;20.014;2022-11-15T06:05:24;7.30;99.90
38456;DHT22;24237;50.106;20.014;2022-11-15T06:07:50;7.20;99.90
38456;DHT22;24237;50.106;20.014;2022-11-15T06:10:15;7.40;99.90
38456;DHT22;24237;50.106;20.014;2022-11-15T06:12:41;7.30;99.90
38456;DHT22;24237;50.106;20.014;2022-11-15T06:15:07;7.50;99.90
38456;DHT22;24237;50.106;20.014;2022-11-15T06:17:33;7.40;99.90
38456;DHT22;24237;50.106;20.014;2022-11-15T06:19:58;7.70;99.90
38456;DHT22;24237;50.106;20.014;2022-11-15T06:22:24;7.50;99.90
38456;DHT22;24237;50.106;20.014;2022-11-15T06:24:49;7.10;99.90
38456;DHT22;24237;50.106;20.014;2022-11-15T06:27:15;7.20;99.90
38456;DHT22;24237;50.106;20.014;2022-11-15T06:29:40;7.20;99.90
38456;DHT22;24237;50.106;20.014;2022-11-15T06:32:06;7.30;99.90
38456;DHT22;24237;50.106;20.014;2022-11-15T06:34:32;7.00;99.90
38456;DHT22;24237;50.106;20.014;2022-11-15T06:37:17;6.80;99.90
38456;DHT22;24237;50.106;20.014;2022-11-15T06:39:43;6.90;99.90
38456;DHT22;24237;50.106;20.014;2022-11-15T06:42:09;7.20;99.90
38456;DHT22;24237;50.106;20.014;2022-11-15T06:44:34;7.30;99.90
38456;DHT22;24237;50.106;20.014;2022-11-15T06:47:00;7.20;99.90
38456;DHT22;24237;50.106;20.014;2022-11-15T06:49:26;7.30;99.90
38456;DHT22;24237;50.106;20.014;2022-11-15T06:51:51;7.50;99.90
38456;DHT22;24237;50.106;20.014;2022-11-15T06:54:17;7.40;99.90
38456;DHT22;24237;50.106;20.014;2022-11-15T06:56:42;6.90;99.90
38456;DHT22;24237;50.106;20.014;2022-11-15T06:59:08;6.80;99.90
38456;DHT22;24237;50.106;20.014;2022-11-15T07:01:34;6.90;99.90
38456;DHT22;24237;50.106;20.014;2022-11-15T07:03:59;7.00;99.90
38456;DHT22;24237;50.106;20.014;2022-11-15T07:06:25;7.00;99.90
38456;DHT22;24237;50.106;20.014;2022-11-15T07:08:51;7.00;99.90
38456;DHT22;24237;50.106;20.014;2022-11-15T07:11:16;7.00;99.90
38456;DHT22;24237;50.106;20.014;2022-11-15T07:13:42;7.00;99.90
38456;DHT22;24237;50.106;20.014;2022-11-15T07:16:09;7.10;99.90
38456;DHT22;24237;50.106;20.014;2022-11-15T07:18:36;7.50;99.90
38456;DHT22;24237;50.106;20.014;2022-11-15T07:21:08;7.30;99.90
38456;DHT22;24237;50.106;20.014;2022-11-15T07:23:39;7.30;99.90
38456;DHT22;24237;50.106;20.014;2022-11-15T07:26:06;6.80;99.90
38456;DHT22;24237;50.106;20.014;2022-11-15T07:28:32;6.70;99.90
38456;DHT22;24237;50.106;20.014;2022-11-15T07:30:58;6.70;99.90
38456;DHT22;24237;50.106;20.014;2022-11-15T07:33:23;6.80;99.90
38456;DHT22;24237;50.106;20.014;2022-11-15T07:35:49;7.00;99.90
38456;DHT22;24237;50.106;20.014;2022-11-15T07:38:15;6.90;99.90
38456;DHT22;24237;50.106;20.014;2022-11-15T07:40:44;6.90;99.90
38456;DHT22;24237;50.106;20.014;2022-11-15T07:43:10;7.10;99.90
38456;DHT22;24237;50.106;20.014;2022-11-15T07:45:41;7.30;99.90
38456;DHT22;24237;50.106;20.014;2022-11-15T07:48:07;7.30;99.90
38456;DHT22;24237;50.106;20.014;2022-11-15T07:50:33;7.40;99.90
38456;DHT22;24237;50.106;20.014;2022-11-15T07:53:02;7.40;99.90
38456;DHT22;24237;50.106;20.014;2022-11-15T07:55:29;7.30;99.90
38456;DHT22;24237;50.106;20.014;2022-11-15T07:58:06;7.40;99.90
38456;DHT22;24237;50.106;20.014;2022-11-15T08:00:32;7.90;99.90
38456;DHT22;24237;50.106;20.014;2022-11-15T08:03:25;8.10;99.90
38456;DHT22;24237;50.106;20.014;2022-11-15T08:05:51;7.80;99.90
38456;DHT22;24237;50.106;20.014;2022-11-15T08:08:17;7.90;99.90
38456;DHT22;24237;50.106;20.014;2022-11-15T08:10:42;8.10;99.90
38456;DHT22;24237;50.106;20.014;2022-11-15T08:13:10;8.00;99.90
38456;DHT22;24237;50.106;20.014;2022-11-15T08:15:36;8.20;99.90
38456;DHT22;24237;50.106;20.014;2022-11-15T08:18:15;8.30;99.90
38456;DHT22;24237;50.106;20.014;2022-11-15T08:20:42;8.60;99.90
38456;DHT22;24237;50.106;20.014;2022-11-15T08:23:08;8.50;99.90
38456;DHT22;24237;50.106;20.014;2022-11-15T08:25:35;8.30;99.90
38456;DHT22;24237;50.106;20.014;2022-11-15T08:28:04;8.20;99.90
38456;DHT22;24237;50.106;20.014;2022-11-15T08:30:34;8.00;99.90
38456;DHT22;24237;50.106;20.014;2022-11-15T08:33:01;7.80;99.90
38456;DHT22;24237;50.106;20.014;2022-11-15T08:35:28;8.10;99.90
38456;DHT22;24237;50.106;20.014;2022-11-15T08:37:54;8.10;99.90
38456;DHT22;24237;50.106;20.014;2022-11-15T08:40:20;8.10;99.90
38456;DHT22;24237;50.106;20.014;2022-11-15T08:42:46;8.30;99.90
38456;DHT22;24237;50.106;20.014;2022-11-15T08:45:31;8.40;99.90
38456;DHT22;24237;50.106;20.014;2022-11-15T08:47:57;8.40;99.90
38456;DHT22;24237;50.106;20.014;2022-11-15T08:50:22;8.50;99.90
38456;DHT22;24237;50.106;20.014;2022-11-15T08:52:48;8.40;99.90
38456;DHT22;24237;50.106;20.014;2022-11-15T08:55:14;8.40;99.90
38456;DHT22;24237;50.106;20.014;2022-11-15T08:57:40;8.30;99.90
38456;DHT22;24237;50.106;20.014;2022-11-15T09:00:06;8.00;99.90
38456;DHT22;24237;50.106;20.014;2022-11-15T09:02:33;8.50;99.90
38456;DHT22;24237;50.106;20.014;2022-11-15T09:04:58;8.50;99.90
38456;DHT22;24237;50.106;20.014;2022-11-15T09:07:24;8.80;99.90
38456;DHT22;24237;50.106;20.014;2022-11-15T09:09:50;8.80;99.90
38456;DHT22;24237;50.106;20.014;2022-11-15T09:12:15;8.60;99.90
38456;DHT22;24237;50.106;20.014;2022-11-15T09:14:41;8.50;99.90
38456;DHT22;24237;50.106;20.014;2022-11-15T09:17:10;9.00;99.90
38456;DHT22;24237;50.106;20.014;2022-11-15T09:19:35;9.00;99.90
38456;DHT22;24237;50.106;20.014;2022-11-15T09:22:04;9.20;99.90
38456;DHT22;24237;50.106;20.014;2022-11-15T09:24:30;9.30;99.90
38456;DHT22;24237;50.106;20.014;2022-11-15T09:26:56;9.30;99.90
38456;DHT22;24237;50.106;20.014;2022-11-15T09:29:24;9.20;99.90
38456;DHT22;24237;50.106;20.014;2022-11-15T09:31:52;9.20;99.90
38456;DHT22;24237;50.106;20.014;2022-11-15T09:34:18;9.30;99.90
38456;DHT22;24237;50.106;20.014;2022-11-15T09:36:43;9.40;99.90
38456;DHT22;24237;50.106;20.014;2022-11-15T09:39:09;9.50;99.90
38456;DHT22;24237;50.106;20.014;2022-11-15T09:50:43;9.80;99.90
38456;DHT22;24237;50.106;20.014;2022-11-15T09:56:05;10.20;99.90
38456;DHT22;24237;50.106;20.014;2022-11-15T09:59:03;10.30;99.90
38456;DHT22;24237;50.106;20.014;2022-11-15T10:04:35;10.40;99.90
38456;DHT22;24237;50.106;20.014;2022-11-15T10:09:56;10.60;99.90
38456;DHT22;24237;50.106;20.014;2022-11-15T10:12:25;10.60;99.90
38456;DHT22;24237;50.106;20.014;2022-11-15T10:15:05;10.50;99.90
38456;DHT22;24237;50.106;20.014;2022-11-15T10:20:30;10.40;99.90
38456;DHT22;24237;50.106;20.014;2022-11-15T10:23:21;10.80;99.90
38456;DHT22;24237;50.106;20.014;2022-11-15T10:25:51;10.70;99.90
38456;DHT22;24237;50.106;20.014;2022-11-15T10:30:51;10.80;99.90
38456;DHT22;24237;50.106;20.014;2022-11-15T10:33:33;11.20;99.90
38456;DHT22;24237;50.106;20.014;2022-11-15T10:46:36;11.80;99.90
38456;DHT22;24237;50.106;20.014;2022-11-15T10:49:21;12.00;99.90
38456;DHT22;24237;50.106;20.014;2022-11-15T10:51:54;12.30;99.90
38456;DHT22;24237;50.106;20.014;2022-11-15T10:54:33;12.30;99.90
38456;DHT22;24237;50.106;20.014;2022-11-15T10:57:04;12.30;99.90
38456;DHT22;24237;50.106;20.014;2022-11-15T10:59:33;12.20;99.90
38456;DHT22;24237;50.106;20.014;2022-11-15T11:02:00;12.60;99.90
38456;DHT22;24237;50.106;20.014;2022-11-15T11:04:26;12.80;99.90
38456;DHT22;24237;50.106;20.014;2022-11-15T11:06:57;12.80;99.90
38456;DHT22;24237;50.106;20.014;2022-11-15T11:09:43;13.00;99.90
38456;DHT22;24237;50.106;20.014;2022-11-15T11:12:27;13.10;99.90
38456;DHT22;24237;50.106;20.014;2022-11-15T11:14:55;13.20;99.90
38456;DHT22;24237;50.106;20.014;2022-11-15T11:17:36;13.30;99.90
38456;DHT22;24237;50.106;20.014;2022-11-15T11:25:34;14.00;99.90
38456;DHT22;24237;50.106;20.014;2022-11-15T11:31:29;15.00;99.90
38456;DHT22;24237;50.106;20.014;2022-11-15T11:40:12;18.50;99.90
38456;DHT22;24237;50.106;20.014;2022-11-15T11:43:04;19.10;99.90
38456;DHT22;24237;50.106;20.014;2022-11-15T11:50:31;20.10;98.90
38456;DHT22;24237;50.106;20.014;2022-11-15T11:55:57;20.50;98.40
38456;DHT22;24237;50.106;20.014;2022-11-15T11:58:45;20.80;98.00
38456;DHT22;24237;50.106;20.014;2022-11-15T12:01:23;21.00;97.30
38456;DHT22;24237;50.106;20.014;2022-11-15T12:04:24;21.60;96.80
38456;DHT22;24237;50.106;20.014;2022-11-15T12:07:02;22.00;95.70
38456;DHT22;24237;50.106;20.014;2022-11-15T12:09:41;21.40;96.00
38456;DHT22;24237;50.106;20.014;2022-11-15T12:17:34;22.20;94.90
38456;DHT22;24237;50.106;20.014;2022-11-15T12:20:17;22.00;94.90
38456;DHT22;24237;50.106;20.014;2022-11-15T12:27:55;21.70;94.50
38456;DHT22;24237;50.106;20.014;2022-11-15T12:30:22;20.80;95.40
38456;DHT22;24237;50.106;20.014;2022-11-15T12:32:58;20.30;95.30
38456;DHT22;24237;50.106;20.014;2022-11-15T12:35:37;19.20;96.30
38456;DHT22;24237;50.106;20.014;2022-11-15T12:38:04;18.10;97.80
38456;DHT22;24237;50.106;20.014;2022-11-15T12:40:36;16.90;99.10
38456;DHT22;24237;50.106;20.014;2022-11-15T12:45:38;15.80;99.90
38456;DHT22;24237;50.106;20.014;2022-11-15T12:51:04;15.00;99.90
38456;DHT22;24237;50.106;20.014;2022-11-15T12:53:32;14.60;99.90
38456;DHT22;24237;50.106;20.014;2022-11-15T13:01:10;13.90;99.90
38456;DHT22;24237;50.106;20.014;2022-11-15T13:06:45;13.60;99.90
38456;DHT22;24237;50.106;20.014;2022-11-15T13:14:58;13.20;99.90
38456;DHT22;24237;50.106;20.014;2022-11-15T13:17:35;13.40;99.90
38456;DHT22;24237;50.106;20.014;2022-11-15T13:22:45;13.50;99.90
38456;DHT22;24237;50.106;20.014;2022-11-15T13:28:37;13.30;99.90
38456;DHT22;24237;50.106;20.014;2022-11-15T13:31:41;13.40;99.90
38456;DHT22;24237;50.106;20.014;2022-11-15T13:34:26;13.40;99.90
38456;DHT22;24237;50.106;20.014;2022-11-15T13:36:53;13.30;99.90
38456;DHT22;24237;50.106;20.014;2022-11-15T13:39:33;13.30;99.90
38456;DHT22;24237;50.106;20.014;2022-11-15T13:41:59;13.20;99.90
38456;DHT22;24237;50.106;20.014;2022-11-15T13:44:33;13.30;99.90
38456;DHT22;24237;50.106;20.014;2022-11-15T13:47:05;13.10;99.90
38456;DHT22;24237;50.106;20.014;2022-11-15T13:49:32;13.00;99.90
38456;DHT22;24237;50.106;20.014;2022-11-15T13:52:00;13.00;99.90
38456;DHT22;24237;50.106;20.014;2022-11-15T13:57:44;13.00;99.90
38456;DHT22;24237;50.106;20.014;2022-11-15T14:03:22;13.00;99.90
38456;DHT22;24237;50.106;20.014;2022-11-15T14:06:11;12.90;99.90
38456;DHT22;24237;50.106;20.014;2022-11-15T14:08:41;12.90;99.90
38456;DHT22;24237;50.106;20.014;2022-11-15T14:11:19;12.90;99.90
38456;DHT22;24237;50.106;20.014;2022-11-15T14:16:35;12.80;99.90
38456;DHT22;24237;50.106;20.014;2022-11-15T14:19:01;12.70;99.90
38456;DHT22;24237;50.106;20.014;2022-11-15T14:21:28;12.60;99.90
38456;DHT22;24237;50.106;20.014;2022-11-15T14:24:14;12.60;99.90
38456;DHT22;24237;50.106;20.014;2022-11-15T14:26:40;12.50;99.90
38456;DHT22;24237;50.106;20.014;2022-11-15T14:29:28;12.50;99.90
38456;DHT22;24237;50.106;20.014;2022-11-15T14:34:39;12.50;99.90
38456;DHT22;24237;50.106;20.014;2022-11-15T14:39:43;12.50;99.90
38456;DHT22;24237;50.106;20.014;2022-11-15T14:42:09;12.40;99.90
38456;DHT22;24237;50.106;20.014;2022-11-15T14:44:35;12.40;99.90
38456;DHT22;24237;50.106;20.014;2022-11-15T14:47:00;12.40;99.90
38456;DHT22;24237;50.106;20.014;2022-11-15T14:49:26;12.30;99.90
38456;DHT22;24237;50.106;20.014;2022-11-15T14:51:52;12.50;99.90
38456;DHT22;24237;50.106;20.014;2022-11-15T14:54:17;12.40;99.90
38456;DHT22;24237;50.106;20.014;2022-11-15T14:56:43;12.30;99.90
38456;DHT22;24237;50.106;20.014;2022-11-15T14:59:08;12.20;99.90
38456;DHT22;24237;50.106;20.014;2022-11-15T15:01:34;12.20;99.90
38456;DHT22;24237;50.106;20.014;2022-11-15T15:04:00;12.10;99.90
38456;DHT22;24237;50.106;20.014;2022-11-15T15:06:26;12.20;99.90
38456;DHT22;24237;50.106;20.014;2022-11-15T15:08:51;12.50;99.90
38456;DHT22;24237;50.106;20.014;2022-11-15T15:11:28;12.40;99.90
38456;DHT22;24237;50.106;20.014;2022-11-15T15:13:55;12.80;99.90
38456;DHT22;24237;50.106;20.014;2022-11-15T15:16:23;12.70;99.90
38456;DHT22;24237;50.106;20.014;2022-11-15T15:18:50;12.50;99.90
38456;DHT22;24237;50.106;20.014;2022-11-15T15:21:26;12.40;99.90
38456;DHT22;24237;50.106;20.014;2022-11-15T15:23:53;12.60;99.90
38456;DHT22;24237;50.106;20.014;2022-11-15T15:26:25;12.50;99.90
38456;DHT22;24237;50.106;20.014;2022-11-15T15:28:51;12.40;99.90
38456;DHT22;24237;50.106;20.014;2022-11-15T15:31:17;12.40;99.90
38456;DHT22;24237;50.106;20.014;2022-11-15T15:33:43;12.30;99.90
38456;DHT22;24237;50.106;20.014;2022-11-15T15:36:13;12.20;99.90
38456;DHT22;24237;50.106;20.014;2022-11-15T15:38:40;12.10;99.90
38456;DHT22;24237;50.106;20.014;2022-11-15T15:41:10;12.10;99.90
38456;DHT22;24237;50.106;20.014;2022-11-15T15:43:36;12.30;99.90
38456;DHT22;24237;50.106;20.014;2022-11-15T15:46:02;12.30;99.90
38456;DHT22;24237;50.106;20.014;2022-11-15T15:48:27;12.20;99.90
38456;DHT22;24237;50.106;20.014;2022-11-15T15:51:13;12.20;99.90
38456;DHT22;24237;50.106;20.014;2022-11-15T15:53:39;12.30;99.90
38456;DHT22;24237;50.106;20.014;2022-11-15T15:56:05;12.20;99.90
38456;DHT22;24237;50.106;20.014;2022-11-15T15:58:33;12.20;99.90
38456;DHT22;24237;50.106;20.014;2022-11-15T16:01:05;12.40;99.90
38456;DHT22;24237;50.106;20.014;2022-11-15T16:03:31;12.50;99.90
38456;DHT22;24237;50.106;20.014;2022-11-15T16:05:58;12.30;99.90
38456;DHT22;24237;50.106;20.014;2022-11-15T16:08:24;12.20;99.90
38456;DHT22;24237;50.106;20.014;2022-11-15T16:10:52;12.10;99.90
38456;DHT22;24237;50.106;20.014;2022-11-15T16:13:17;12.20;99.90
38456;DHT22;24237;50.106;20.014;2022-11-15T16:15:43;12.20;99.90
38456;DHT22;24237;50.106;20.014;2022-11-15T16:18:15;12.20;99.90
38456;DHT22;24237;50.106;20.014;2022-11-15T16:20:44;12.10;99.90
38456;DHT22;24237;50.106;20.014;2022-11-15T16:23:12;12.00;99.90
38456;DHT22;24237;50.106;20.014;2022-11-15T16:25:48;12.10;99.90
38456;DHT22;24237;50.106;20.014;2022-11-15T16:31:19;12.20;99.90
38456;DHT22;24237;50.106;20.014;2022-11-15T16:34:08;12.20;99.90
38456;DHT22;24237;50.106;20.014;2022-11-15T16:36:34;12.10;99.90
38456;DHT22;24237;50.106;20.014;2022-11-15T16:42:22;12.20;99.90
38456;DHT22;24237;50.106;20.014;2022-11-15T16:44:48;12.20;99.90
38456;DHT22;24237;50.106;20.014;2022-11-15T16:47:18;12.20;99.90
38456;DHT22;24237;50.106;20.014;2022-11-15T16:49:47;12.40;99.90
38456;DHT22;24237;50.106;20.014;2022-11-15T16:52:17;12.20;99.90
38456;DHT22;24237;50.106;20.014;2022-11-15T16:54:42;12.10;99.90
38456;DHT22;24237;50.106;20.014;2022-11-15T16:57:10;12.00;99.90
38456;DHT22;24237;50.106;20.014;2022-11-15T16:59:38;12.00;99.90
38456;DHT22;24237;50.106;20.014;2022-11-15T17:02:11;12.00;99.90
38456;DHT22;24237;50.106;20.014;2022-11-15T17:04:39;11.90;99.90
38456;DHT22;24237;50.106;20.014;2022-11-15T17:07:05;12.00;99.90
38456;DHT22;24237;50.106;20.014;2022-11-15T17:09:59;12.10;99.90
38456;DHT22;24237;50.106;20.014;2022-11-15T17:12:54;12.10;99.90
38456;DHT22;24237;50.106;20.014;2022-11-15T17:15:28;12.20;99.90
38456;DHT22;24237;50.106;20.014;2022-11-15T17:17:54;12.20;99.90
38456;DHT22;24237;50.106;20.014;2022-11-15T17:20:23;12.40;99.90
38456;DHT22;24237;50.106;20.014;2022-11-15T17:22:49;12.40;99.90
38456;DHT22;24237;50.106;20.014;2022-11-15T17:25:15;12.30;99.90
38456;DHT22;24237;50.106;20.014;2022-11-15T17:28:21;12.10;99.90
38456;DHT22;24237;50.106;20.014;2022-11-15T17:31:11;12.10;99.90
38456;DHT22;24237;50.106;20.014;2022-11-15T17:33:59;12.20;99.90
38456;DHT22;24237;50.106;20.014;2022-11-15T17:36:25;12.10;99.90
38456;DHT22;24237;50.106;20.014;2022-11-15T17:38:50;12.20;99.90
38456;DHT22;24237;50.106;20.014;2022-11-15T17:41:46;12.10;99.90
38456;DHT22;24237;50.106;20.014;2022-11-15T17:44:12;12.10;99.90
38456;DHT22;24237;50.106;20.014;2022-11-15T17:46:38;12.10;99.90
38456;DHT22;24237;50.106;20.014;2022-11-15T17:49:05;12.10;99.90
38456;DHT22;24237;50.106;20.014;2022-11-15T17:51:31;12.10;99.90
38456;DHT22;24237;50.106;20.014;2022-11-15T17:53:57;12.10;99.90
38456;DHT22;24237;50.106;20.014;2022-11-15T17:56:25;12.10;99.90
38456;DHT22;24237;50.106;20.014;2022-11-15T17:58:55;12.20;99.90
38456;DHT22;24237;50.106;20.014;2022-11-15T18:01:30;12.00;99.90
38456;DHT22;24237;50.106;20.014;2022-11-15T18:03:57;12.10;99.90
38456;DHT22;24237;50.106;20.014;2022-11-15T18:06:25;12.00;99.90